createdAt,value
2018-09-06T00:00:49.516Z,93.53
2018-09-06T00:03:18.818Z,95.67
2018-09-06T00:05:47.128Z,93.80
2018-09-06T00:08:15.406Z,123.67
2018-09-06T00:10:43.901Z,150.27
2018-09-06T00:13:12.175Z,163.43
2018-09-06T00:15:40.442Z,172.57
2018-09-06T00:18:08.726Z,189.73
2018-09-06T00:20:37.007Z,185.80
2018-09-06T00:23:05.454Z,174.47
2018-09-06T00:25:34.175Z,173.03
2018-09-06T00:28:02.771Z,142.17
2018-09-06T00:30:31.080Z,141.37
2018-09-06T00:32:59.326Z,140.90
2018-09-06T00:35:27.622Z,136.63
2018-09-06T00:37:56.072Z,134.97
2018-09-06T00:40:24.359Z,131.10
2018-09-06T00:42:52.643Z,132.27
2018-09-06T00:45:20.955Z,133.50
2018-09-06T00:47:49.234Z,131.80
2018-09-06T00:50:19.400Z,121.87
2018-09-06T00:52:49.221Z,123.77
2018-09-06T00:55:17.892Z,120.53
2018-09-06T00:57:46.189Z,96.03
2018-09-06T01:00:14.667Z,87.37
2018-09-06T01:02:43.454Z,80.87
2018-09-06T01:05:11.744Z,68.50
2018-09-06T01:07:39.995Z,65.57
2018-09-06T01:10:08.475Z,78.17
2018-09-06T01:12:36.738Z,61.47
2018-09-06T01:15:05.051Z,64.17
2018-09-06T01:17:33.310Z,64.47
2018-09-06T01:20:01.715Z,61.40
2018-09-06T01:22:30.072Z,55.20
2018-09-06T01:24:58.337Z,55.57
2018-09-06T01:27:26.651Z,56.00
2018-09-06T01:29:54.919Z,52.63
2018-09-06T01:32:23.581Z,51.20
2018-09-06T01:34:51.858Z,49.77
2018-09-06T01:37:20.195Z,49.77
2018-09-06T01:39:48.473Z,49.87
2018-09-06T01:42:16.739Z,47.17
2018-09-06T01:44:45.001Z,45.50
2018-09-06T01:47:13.301Z,44.57
2018-09-06T01:49:41.550Z,44.00
2018-09-06T01:52:09.829Z,43.13
2018-09-06T01:54:38.092Z,39.83
2018-09-06T01:57:06.390Z,40.17
2018-09-06T01:59:38.919Z,41.67
2018-09-06T02:02:07.810Z,38.23
2018-09-06T02:04:36.688Z,35.77
2018-09-06T02:07:05.190Z,37.53
2018-09-06T02:09:33.486Z,35.87
2018-09-06T02:12:01.802Z,32.13
2018-09-06T02:14:30.068Z,32.40
2018-09-06T02:16:58.364Z,31.37
2018-09-06T02:19:26.634Z,32.57
2018-09-06T02:21:54.895Z,30.57
2018-09-06T02:24:23.205Z,31.33
2018-09-06T02:26:51.535Z,29.40
2018-09-06T02:29:19.798Z,36.33
2018-09-06T02:31:48.071Z,36.10
2018-09-06T02:34:16.381Z,33.13
2018-09-06T02:36:44.665Z,31.90
2018-09-06T02:39:12.944Z,27.87
2018-09-06T02:41:41.231Z,25.40
2018-09-06T02:44:09.626Z,25.33
2018-09-06T02:46:37.908Z,25.83
2018-09-06T02:49:06.233Z,24.93
2018-09-06T02:51:34.514Z,25.97
2018-09-06T02:54:02.869Z,25.97
2018-09-06T02:56:31.087Z,32.70
2018-09-06T02:58:59.367Z,32.67
2018-09-06T03:01:27.644Z,30.30
2018-09-06T03:03:55.919Z,30.83
2018-09-06T03:06:24.206Z,28.07
2018-09-06T03:08:52.475Z,24.90
2018-09-06T03:11:24.614Z,25.67
2018-09-06T03:13:53.372Z,23.47
2018-09-06T03:16:21.666Z,21.40
2018-09-06T03:18:50.087Z,23.07
2018-09-06T03:21:18.398Z,22.80
2018-09-06T03:23:46.675Z,21.90
2018-09-06T03:26:19.304Z,21.70
2018-09-06T03:28:49.159Z,20.50
2018-09-06T03:31:17.514Z,18.87
2018-09-06T03:33:46.324Z,18.60
2018-09-06T03:36:14.903Z,19.07
2018-09-06T03:38:43.290Z,18.77
2018-09-06T03:41:11.593Z,18.33
2018-09-06T03:43:39.901Z,17.83
2018-09-06T03:46:08.764Z,21.50
2018-09-06T03:48:37.203Z,20.03
2018-09-06T03:51:05.998Z,23.07
2018-09-06T03:53:34.488Z,28.03
2018-09-06T03:56:02.793Z,24.00
2018-09-06T03:58:31.089Z,25.13
2018-09-06T04:00:59.357Z,23.03
2018-09-06T04:03:27.695Z,22.67
2018-09-06T04:05:56.004Z,24.33
2018-09-06T04:08:24.283Z,21.97
2018-09-06T04:10:52.559Z,20.90
2018-09-06T04:13:20.846Z,20.17
2018-09-06T04:15:49.112Z,19.83
2018-09-06T04:18:17.414Z,18.60
2018-09-06T04:20:45.959Z,19.37
2018-09-06T04:23:14.278Z,18.43
2018-09-06T04:25:42.589Z,17.60
2018-09-06T04:28:10.883Z,18.97
2018-09-06T04:30:39.210Z,17.60
2018-09-06T04:33:07.598Z,15.97
2018-09-06T04:35:35.925Z,16.30
2018-09-06T04:38:04.207Z,15.13
2018-09-06T04:40:32.534Z,15.70
2018-09-06T04:43:00.821Z,15.57
2018-09-06T04:45:29.182Z,14.23
2018-09-06T04:47:57.465Z,13.33
2018-09-06T04:50:25.810Z,13.37
2018-09-06T04:52:54.099Z,13.43
2018-09-06T04:55:22.495Z,13.70
2018-09-06T04:57:50.715Z,13.33
2018-09-06T05:00:19.005Z,12.97
2018-09-06T05:02:47.416Z,13.27
2018-09-06T05:05:15.728Z,11.23
2018-09-06T05:07:44.005Z,11.20
2018-09-06T05:10:12.279Z,11.47
2018-09-06T05:12:40.664Z,10.97
2018-09-06T05:15:09.002Z,12.00
2018-09-06T05:17:37.539Z,11.33
2018-09-06T05:20:06.125Z,10.67
2018-09-06T05:22:34.415Z,10.37
2018-09-06T05:25:03.135Z,10.30
2018-09-06T05:27:31.463Z,9.63
2018-09-06T05:29:59.744Z,10.37
2018-09-06T05:32:28.044Z,9.30
2018-09-06T05:34:56.369Z,8.77
2018-09-06T05:37:24.635Z,9.17
2018-09-06T05:39:52.934Z,8.40
2018-09-06T05:42:21.250Z,9.13
2018-09-06T05:44:49.558Z,8.93
2018-09-06T05:47:17.922Z,8.20
2018-09-06T05:49:46.251Z,8.00
2018-09-06T05:52:14.564Z,8.10
2018-09-06T05:54:42.966Z,8.07
2018-09-06T05:57:11.373Z,8.80
2018-09-06T05:59:39.701Z,8.10
2018-09-06T06:02:07.950Z,8.50
2018-09-06T06:04:36.507Z,7.33
2018-09-06T06:07:04.887Z,7.40
2018-09-06T06:09:33.170Z,7.43
2018-09-06T06:12:01.620Z,7.77
2018-09-06T06:14:29.946Z,7.17
2018-09-06T06:16:58.242Z,7.90
2018-09-06T06:19:26.563Z,6.77
2018-09-06T06:21:54.823Z,6.53
2018-09-06T06:24:23.111Z,6.33
2018-09-06T06:26:51.467Z,7.00
2018-09-06T06:29:19.752Z,6.87
2018-09-06T06:31:48.078Z,6.40
2018-09-06T06:34:16.327Z,6.10
2018-09-06T06:36:44.618Z,6.60
2018-09-06T06:39:13.635Z,6.63
2018-09-06T06:41:41.922Z,6.33
2018-09-06T06:44:10.592Z,6.00
2018-09-06T06:46:38.890Z,6.60
2018-09-06T06:49:07.339Z,5.90
2018-09-06T06:51:35.664Z,6.67
2018-09-06T06:54:03.965Z,5.97
2018-09-06T06:56:32.398Z,6.10
2018-09-06T06:59:00.688Z,5.37
2018-09-06T07:01:28.959Z,6.20
2018-09-06T07:03:57.313Z,6.10
2018-09-06T07:06:25.583Z,5.53
2018-09-06T07:08:53.879Z,5.67
2018-09-06T07:11:22.168Z,5.50
2018-09-06T07:13:50.470Z,5.80
2018-09-06T07:16:18.759Z,5.40
2018-09-06T07:18:47.049Z,5.77
2018-09-06T07:21:15.354Z,5.30
2018-09-06T07:23:43.642Z,5.53
2018-09-06T07:26:11.923Z,4.90
2018-09-06T07:28:40.268Z,5.27
2018-09-06T07:31:08.578Z,5.17
2018-09-06T07:33:36.856Z,5.60
2018-09-06T07:36:05.160Z,5.73
2018-09-06T07:38:33.632Z,11.03
2018-09-06T07:41:01.921Z,16.80
2018-09-06T07:43:30.228Z,24.27
2018-09-06T07:45:58.604Z,27.17
2018-09-06T07:48:26.983Z,43.20
2018-09-06T07:50:55.293Z,48.67
2018-09-06T07:53:23.566Z,49.73
2018-09-06T07:55:51.899Z,53.23
2018-09-06T07:58:20.349Z,53.17
2018-09-06T08:00:48.643Z,53.47
2018-09-06T08:03:16.945Z,52.90
2018-09-06T08:05:45.230Z,52.50
2018-09-06T08:08:13.524Z,60.07
2018-09-06T08:10:41.810Z,52.37
2018-09-06T08:13:10.111Z,54.80
2018-09-06T08:15:38.397Z,51.27
2018-09-06T08:18:06.674Z,49.03
2018-09-06T08:20:34.999Z,62.30
2018-09-06T08:23:03.300Z,54.37
2018-09-06T08:25:31.958Z,54.13
2018-09-06T08:28:00.222Z,53.20
2018-09-06T08:30:28.502Z,54.50
2018-09-06T08:32:56.935Z,53.87
2018-09-06T08:35:25.215Z,46.20
2018-09-06T08:37:53.479Z,60.90
2018-09-06T08:40:21.793Z,62.90
2018-09-06T08:42:50.051Z,64.13
2018-09-06T08:45:18.345Z,63.30
2018-09-06T08:47:46.627Z,59.53
2018-09-06T08:50:14.946Z,62.30
2018-09-06T08:52:43.214Z,56.60
2018-09-06T08:55:11.509Z,56.30
2018-09-06T08:57:39.807Z,54.40
2018-09-06T09:00:08.115Z,72.50
2018-09-06T09:02:36.467Z,68.93
2018-09-06T09:05:04.899Z,77.57
2018-09-06T09:07:33.255Z,118.40
2018-09-06T09:10:01.544Z,84.57
2018-09-06T09:12:29.879Z,95.30
2018-09-06T09:14:58.116Z,94.83
2018-09-06T09:17:26.395Z,103.53
2018-09-06T09:19:54.754Z,93.53
2018-09-06T09:22:23.146Z,91.03
2018-09-06T09:24:51.395Z,90.17
2018-09-06T09:27:19.693Z,108.67
2018-09-06T09:29:48.050Z,109.40
2018-09-06T09:32:16.428Z,116.63
2018-09-06T09:34:44.741Z,105.27
2018-09-06T09:37:13.030Z,103.03
2018-09-06T09:39:41.328Z,95.87
2018-09-06T09:42:09.955Z,88.03
2018-09-06T09:44:38.306Z,106.73
2018-09-06T09:49:34.159Z,88.73
2018-09-06T09:52:02.530Z,81.90
2018-09-06T09:54:30.823Z,75.83
2018-09-06T09:56:59.189Z,69.87
2018-09-06T09:59:27.574Z,67.97
2018-09-06T10:02:01.288Z,64.53
2018-09-06T10:05:39.034Z,108.70
2018-09-06T10:08:12.598Z,64.13
2018-09-06T10:10:41.199Z,80.43
2018-09-06T10:13:09.868Z,71.83
2018-09-06T10:15:38.290Z,68.47
2018-09-06T10:18:06.741Z,62.07
2018-09-06T10:20:35.028Z,67.73
2018-09-06T10:23:03.521Z,62.73
2018-09-06T10:25:31.797Z,57.17
2018-09-06T10:28:00.087Z,57.43
2018-09-06T10:30:28.382Z,57.33
2018-09-06T10:32:56.680Z,56.73
2018-09-06T10:35:25.274Z,54.63
2018-09-06T10:37:53.515Z,51.10
2018-09-06T10:40:21.879Z,48.57
2018-09-06T10:42:50.156Z,50.30
2018-09-06T10:45:18.600Z,69.73
2018-09-06T10:47:46.949Z,51.37
2018-09-06T10:50:15.186Z,55.67
2018-09-06T10:52:43.463Z,57.70
2018-09-06T10:55:11.750Z,59.53
2018-09-06T10:57:40.031Z,61.57
2018-09-06T11:00:08.279Z,59.30
2018-09-06T11:02:36.551Z,52.33
2018-09-06T11:05:05.117Z,50.97
2018-09-06T11:07:33.432Z,51.77
2018-09-06T11:10:01.719Z,48.77
2018-09-06T11:12:29.983Z,47.57
2018-09-06T11:14:58.318Z,46.60
2018-09-06T11:17:26.577Z,45.43
2018-09-06T11:19:54.864Z,42.90
2018-09-06T11:22:24.098Z,41.83
2018-09-06T11:24:52.312Z,38.97
2018-09-06T11:27:20.633Z,41.60
2018-09-06T11:29:48.858Z,41.20
2018-09-06T11:32:17.264Z,104.57
2018-09-06T11:34:45.545Z,65.70
2018-09-06T11:37:13.819Z,58.87
2018-09-06T11:39:42.132Z,58.57
2018-09-06T11:42:10.459Z,55.87
2018-09-06T11:44:38.778Z,57.27
2018-09-06T11:47:07.061Z,70.00
2018-09-06T11:49:35.362Z,88.37
2018-09-06T11:52:03.785Z,51.27
2018-09-06T11:54:32.282Z,45.13
2018-09-06T11:57:00.637Z,47.33
2018-09-06T11:59:28.910Z,55.97
2018-09-06T12:01:57.214Z,60.47
2018-09-06T12:04:25.580Z,89.43
2018-09-06T12:06:53.913Z,90.60
2018-09-06T12:09:22.174Z,70.07
2018-09-06T12:11:50.451Z,63.63
2018-09-06T12:14:18.719Z,60.83
2018-09-06T12:16:47.024Z,57.70
2018-09-06T12:19:15.300Z,55.57
2018-09-06T12:21:43.608Z,76.30
2018-09-06T12:24:12.072Z,60.73
2018-09-06T12:26:40.351Z,63.37
2018-09-06T12:29:08.620Z,84.30
2018-09-06T12:31:36.997Z,79.13
2018-09-06T12:34:05.291Z,95.30
2018-09-06T12:36:33.607Z,93.33
2018-09-06T12:39:01.907Z,78.67
2018-09-06T12:41:30.183Z,74.80
2018-09-06T12:43:58.798Z,75.60
2018-09-06T12:46:27.075Z,72.30
2018-09-06T12:48:55.355Z,78.13
2018-09-06T12:51:23.655Z,91.93
2018-09-06T12:53:52.132Z,88.80
2018-09-06T12:56:20.439Z,83.57
2018-09-06T12:58:48.741Z,71.00
2018-09-06T13:01:17.065Z,80.43
2018-09-06T13:03:45.343Z,82.60
2018-09-06T13:06:13.620Z,72.77
2018-09-06T13:08:42.075Z,68.33
2018-09-06T13:11:10.409Z,64.23
2018-09-06T13:13:38.719Z,60.03
2018-09-06T13:16:07.148Z,60.20
2018-09-06T13:18:35.656Z,53.40
2018-09-06T13:21:03.891Z,55.07
2018-09-06T13:23:32.174Z,51.47
2018-09-06T13:26:00.442Z,50.93
2018-09-06T13:28:28.974Z,41.63
2018-09-06T13:30:57.313Z,42.37
2018-09-06T13:33:25.604Z,38.87
2018-09-06T13:35:53.936Z,41.90
2018-09-06T13:38:22.279Z,36.70
2018-09-06T13:40:50.585Z,36.70
2018-09-06T13:43:19.125Z,44.70
2018-09-06T13:45:47.406Z,30.00
2018-09-06T13:48:16.116Z,33.73
2018-09-06T13:50:44.416Z,34.10
2018-09-06T13:53:12.712Z,35.93
2018-09-06T13:55:41.016Z,37.70
2018-09-06T13:58:09.364Z,31.97
2018-09-06T14:00:38.094Z,31.57
2018-09-06T14:03:06.358Z,29.90
2018-09-06T14:05:34.694Z,30.87
2018-09-06T14:08:02.994Z,31.07
2018-09-06T14:10:31.299Z,42.47
2018-09-06T14:12:59.597Z,48.57
2018-09-06T14:15:27.895Z,45.87
2018-09-06T14:17:56.180Z,47.77
2018-09-06T14:20:24.476Z,41.20
2018-09-06T14:22:52.761Z,36.90
2018-09-06T14:25:21.068Z,37.83
2018-09-06T14:27:49.339Z,36.33
2018-09-06T14:30:17.668Z,34.20
2018-09-06T14:32:46.005Z,35.23
2018-09-06T14:35:14.457Z,55.17
2018-09-06T14:37:42.816Z,40.03
2018-09-06T14:40:11.090Z,32.87
2018-09-06T14:42:39.371Z,31.47
2018-09-06T14:45:07.639Z,31.37
2018-09-06T14:47:35.936Z,27.80
2018-09-06T14:50:04.912Z,30.90
2018-09-06T14:52:33.199Z,31.47
2018-09-06T14:55:01.546Z,29.57
2018-09-06T14:57:29.852Z,46.50
2018-09-06T14:59:58.219Z,48.40
2018-09-06T15:02:26.502Z,41.20
2018-09-06T15:04:54.785Z,35.30
2018-09-06T15:07:23.160Z,45.40
2018-09-06T15:09:51.457Z,51.27
2018-09-06T15:12:19.725Z,52.90
2018-09-06T15:14:48.100Z,50.80
2018-09-06T15:17:16.390Z,45.63
2018-09-06T15:19:44.708Z,42.73
2018-09-06T15:22:13.127Z,40.40
2018-09-06T15:24:41.491Z,50.23
2018-09-06T15:27:09.807Z,60.30
2018-09-06T15:29:38.091Z,48.00
2018-09-06T15:32:06.640Z,37.43
2018-09-06T15:34:34.981Z,43.47
2018-09-06T15:37:03.230Z,41.37
2018-09-06T15:39:31.551Z,34.50
2018-09-06T15:41:59.859Z,50.43
2018-09-06T15:44:28.294Z,35.13
2018-09-06T15:46:56.618Z,38.03
2018-09-06T15:49:24.922Z,34.40
2018-09-06T15:51:53.202Z,29.87
2018-09-06T15:54:21.497Z,28.37
2018-09-06T15:56:49.760Z,29.00
2018-09-06T15:59:18.043Z,29.93
2018-09-06T16:01:46.325Z,30.83
2018-09-06T16:04:14.618Z,28.27
2018-09-06T16:06:42.897Z,24.40
2018-09-06T16:09:11.172Z,25.80
2018-09-06T16:11:39.461Z,22.60
2018-09-06T16:14:07.741Z,20.60
2018-09-06T16:16:36.055Z,19.07
2018-09-06T16:19:04.404Z,18.67
2018-09-06T16:21:32.715Z,19.67
2018-09-06T16:24:01.122Z,16.80
2018-09-06T16:26:29.358Z,16.60
2018-09-06T16:28:57.654Z,16.20
2018-09-06T16:31:25.936Z,16.73
2018-09-06T16:33:54.225Z,14.73
2018-09-06T16:36:22.492Z,21.70
2018-09-06T16:38:50.796Z,39.20
2018-09-06T16:41:19.079Z,45.80
2018-09-06T16:43:47.396Z,35.10
2018-09-06T16:46:15.685Z,76.83
2018-09-06T16:48:43.975Z,50.40
2018-09-06T16:51:12.252Z,40.70
2018-09-06T16:53:40.587Z,76.77
2018-09-06T16:56:08.920Z,100.37
2018-09-06T16:58:37.228Z,107.53
2018-09-06T17:01:05.678Z,86.43
2018-09-06T17:03:33.978Z,62.57
2018-09-06T17:06:02.290Z,62.50
2018-09-06T17:08:30.565Z,61.53
2018-09-06T17:10:58.853Z,63.63
2018-09-06T17:13:27.163Z,62.20
2018-09-06T17:15:55.470Z,67.23
2018-09-06T17:18:23.804Z,137.27
2018-09-06T17:20:52.099Z,140.97
2018-09-06T17:23:20.452Z,115.07
2018-09-06T17:25:48.746Z,108.67
2018-09-06T17:28:17.042Z,108.73
2018-09-06T17:30:45.321Z,103.10
2018-09-06T17:33:13.678Z,104.70
2018-09-06T17:35:41.906Z,102.60
2018-09-06T17:38:10.214Z,103.50
2018-09-06T17:40:38.496Z,97.20
2018-09-06T17:43:06.810Z,97.90
2018-09-06T17:45:35.276Z,96.20
2018-09-06T17:48:03.551Z,94.63
2018-09-06T17:50:32.013Z,89.50
2018-09-06T17:53:00.313Z,92.10
2018-09-06T17:55:28.654Z,89.07
2018-09-06T17:57:56.934Z,88.50
2018-09-06T18:00:25.282Z,86.83
2018-09-06T18:02:53.581Z,87.33
2018-09-06T18:05:21.895Z,85.10
2018-09-06T18:07:50.191Z,84.10
2018-09-06T18:10:18.482Z,84.80
2018-09-06T18:12:47.099Z,82.70
2018-09-06T18:15:15.387Z,86.90
2018-09-06T18:17:43.820Z,83.37
2018-09-06T18:20:11.991Z,79.00
2018-09-06T18:22:40.283Z,102.97
2018-09-06T18:25:08.602Z,91.27
2018-09-06T18:27:36.898Z,92.10
2018-09-06T18:30:05.201Z,108.67
2018-09-06T18:32:33.631Z,123.93
2018-09-06T18:35:01.927Z,177.17
2018-09-06T18:37:30.305Z,147.67
2018-09-06T18:39:58.549Z,115.67
2018-09-06T18:42:26.858Z,115.50
2018-09-06T18:44:55.223Z,117.03
2018-09-06T18:47:24.600Z,115.47
2018-09-06T18:49:52.895Z,114.83
2018-09-06T18:52:21.195Z,115.50
2018-09-06T18:54:49.544Z,166.97
2018-09-06T18:57:17.831Z,162.53
2018-09-06T18:59:46.110Z,174.43
2018-09-06T19:02:14.613Z,200.07
2018-09-06T19:04:42.804Z,172.37
2018-09-06T19:07:11.080Z,151.27
2018-09-06T19:09:39.354Z,146.60
2018-09-06T19:12:07.675Z,145.90
2018-09-06T19:14:35.980Z,143.20
2018-09-06T19:17:04.290Z,143.00
2018-09-06T19:19:32.568Z,140.13
2018-09-06T19:22:00.945Z,144.57
2018-09-06T19:24:29.290Z,150.37
2018-09-06T19:26:57.650Z,181.87
2018-09-06T19:29:25.931Z,164.13
2018-09-06T19:31:54.280Z,156.07
2018-09-06T19:34:22.494Z,166.50
2018-09-06T19:36:50.782Z,199.47
2018-09-06T19:39:19.089Z,173.07
2018-09-06T19:41:47.363Z,160.73
2018-09-06T19:44:15.685Z,161.03
2018-09-06T19:46:44.058Z,164.03
2018-09-06T19:49:12.342Z,156.20
2018-09-06T19:51:40.636Z,154.70
2018-09-06T19:54:08.924Z,172.23
2018-09-06T19:56:37.247Z,188.47
2018-09-06T19:59:05.566Z,207.50
2018-09-06T20:01:33.853Z,192.27
2018-09-06T20:04:02.182Z,175.33
2018-09-06T20:06:30.490Z,183.77
2018-09-06T20:08:58.760Z,175.70
2018-09-06T20:11:27.060Z,174.87
2018-09-06T20:13:55.370Z,171.53
2018-09-06T20:16:23.639Z,165.50
2018-09-06T20:18:51.955Z,160.40
2018-09-06T20:21:20.222Z,153.80
2018-09-06T20:23:48.523Z,148.87
2018-09-06T20:26:16.860Z,87.97
2018-09-06T20:28:45.117Z,36.60
2018-09-06T20:31:13.393Z,26.40
2018-09-06T20:33:42.047Z,17.57
2018-09-06T20:36:10.277Z,10.57
2018-09-06T20:38:38.636Z,8.57
2018-09-06T20:41:06.910Z,7.77
2018-09-06T20:43:35.217Z,7.80
2018-09-06T20:46:03.611Z,8.37
2018-09-06T20:48:31.916Z,27.20
2018-09-06T20:51:00.362Z,19.20
2018-09-06T20:53:28.700Z,12.00
2018-09-06T20:55:57.158Z,9.33
2018-09-06T20:58:25.488Z,36.80
2018-09-06T21:00:54.106Z,18.07
2018-09-06T21:03:22.581Z,12.10
2018-09-06T21:05:50.950Z,21.07
2018-09-06T21:08:19.435Z,11.37
2018-09-06T21:10:47.864Z,9.30
2018-09-06T21:13:16.303Z,7.40
2018-09-06T21:15:44.632Z,6.60
2018-09-06T21:18:13.148Z,16.17
2018-09-06T21:20:41.467Z,7.73
2018-09-06T21:23:09.810Z,18.37
2018-09-06T21:25:38.323Z,7.83
2018-09-06T21:28:06.702Z,5.13
2018-09-06T21:30:35.104Z,5.20
2018-09-06T21:33:03.471Z,5.23
2018-09-06T21:35:31.829Z,16.83
2018-09-06T21:38:00.239Z,6.60
2018-09-06T21:40:28.824Z,4.87
2018-09-06T21:42:57.136Z,5.70
2018-09-06T21:45:25.415Z,9.90
2018-09-06T21:47:54.077Z,11.47
2018-09-06T21:50:22.542Z,7.73
2018-09-06T21:52:50.959Z,6.77
2018-09-06T21:55:19.687Z,5.90
2018-09-06T21:57:48.031Z,6.43
2018-09-06T22:00:16.399Z,5.07
2018-09-06T22:02:50.183Z,4.87
2018-09-06T22:05:18.473Z,12.00
2018-09-06T22:07:46.773Z,5.80
2018-09-06T22:10:15.094Z,5.87
2018-09-06T22:12:43.448Z,6.17
2018-09-06T22:15:11.727Z,7.03
2018-09-06T22:17:39.987Z,9.07
2018-09-06T22:20:08.268Z,6.30
2018-09-06T22:22:36.562Z,6.67
2018-09-06T22:25:04.885Z,7.67
2018-09-06T22:27:33.243Z,12.33
2018-09-06T22:30:01.551Z,8.37
2018-09-06T22:32:29.886Z,8.70
2018-09-06T22:34:58.210Z,8.93
2018-09-06T22:37:26.554Z,9.83
2018-09-06T22:39:56.820Z,9.30
2018-09-06T22:42:25.160Z,8.97
2018-09-06T22:44:53.442Z,8.83
2018-09-06T22:47:21.947Z,8.10
2018-09-06T22:49:50.247Z,7.57
2018-09-06T22:52:18.581Z,7.70
2018-09-06T22:54:46.904Z,7.27
2018-09-06T22:57:15.228Z,6.40
2018-09-06T22:59:43.647Z,7.57
2018-09-06T23:02:11.985Z,17.53
2018-09-06T23:04:40.272Z,41.90
2018-09-06T23:07:08.625Z,34.23
2018-09-06T23:09:36.921Z,34.57
2018-09-06T23:12:05.240Z,37.00
2018-09-06T23:14:33.645Z,44.23
2018-09-06T23:17:02.007Z,41.00
2018-09-06T23:19:30.392Z,53.47
2018-09-06T23:21:58.717Z,62.00
2018-09-06T23:24:27.080Z,46.03
2018-09-06T23:26:55.386Z,39.40
2018-09-06T23:29:23.696Z,38.07
2018-09-06T23:31:51.992Z,41.37
2018-09-06T23:34:20.271Z,36.07
2018-09-06T23:36:48.576Z,39.27
2018-09-06T23:39:16.887Z,36.60
2018-09-06T23:41:45.211Z,39.30
2018-09-06T23:44:13.571Z,131.90
2018-09-06T23:46:41.908Z,98.57
2018-09-06T23:49:10.220Z,95.70
2018-09-06T23:51:38.612Z,62.00
2018-09-06T23:54:07.157Z,52.23
2018-09-06T23:56:35.499Z,48.00
2018-09-06T23:59:03.842Z,51.60
